createdAt,value
2023-04-09T00:00:49.692Z,20.97
2023-04-09T00:01:49.792Z,20.94
2023-04-09T00:02:49.872Z,20.96
2023-04-09T00:03:49.895Z,20.91
2023-04-09T00:04:50.036Z,20.91
2023-04-09T00:05:50.024Z,20.91
2023-04-09T00:06:50.050Z,20.92
2023-04-09T00:07:50.121Z,20.90
2023-04-09T00:08:50.575Z,20.88
2023-04-09T00:09:50.502Z,20.88
2023-04-09T00:10:50.320Z,20.87
2023-04-09T00:11:50.389Z,20.91
2023-04-09T00:12:50.423Z,20.90
2023-04-09T00:13:50.509Z,20.96
2023-04-09T00:14:50.573Z,20.90
2023-04-09T00:15:50.694Z,20.88
2023-04-09T00:16:50.698Z,20.93
2023-04-09T00:17:50.800Z,20.87
2023-04-09T00:18:51.053Z,20.86
2023-04-09T00:19:50.900Z,20.90
2023-04-09T00:20:50.948Z,20.90
2023-04-09T00:21:51.009Z,20.86
2023-04-09T00:22:51.073Z,20.79
2023-04-09T00:23:51.109Z,20.83
2023-04-09T00:24:51.253Z,20.78
2023-04-09T00:25:51.235Z,20.86
2023-04-09T00:26:51.323Z,20.86
2023-04-09T00:27:51.382Z,20.83
2023-04-09T00:28:51.532Z,20.81
2023-04-09T00:29:51.503Z,20.86
2023-04-09T00:30:51.566Z,20.77
2023-04-09T00:31:51.711Z,20.83
2023-04-09T00:32:51.746Z,20.84
2023-04-09T00:33:51.745Z,20.83
2023-04-09T00:34:51.814Z,20.82
2023-04-09T00:35:51.880Z,20.80
2023-04-09T00:36:51.928Z,20.78
2023-04-09T00:37:52.016Z,20.83
2023-04-09T00:38:52.202Z,20.80
2023-04-09T00:39:52.133Z,20.82
2023-04-09T00:40:52.282Z,20.81
2023-04-09T00:41:52.262Z,20.84
2023-04-09T00:42:52.293Z,20.82
2023-04-09T00:43:52.348Z,20.84
2023-04-09T00:44:52.415Z,20.81
2023-04-09T00:45:52.573Z,20.78
2023-04-09T00:46:52.541Z,20.86
2023-04-09T00:47:52.622Z,20.84
2023-04-09T00:48:52.881Z,20.77
2023-04-09T00:49:52.722Z,20.83
2023-04-09T00:50:52.782Z,20.83
2023-04-09T00:51:52.826Z,20.77
2023-04-09T00:52:52.886Z,20.83
2023-04-09T00:53:52.947Z,20.81
2023-04-09T00:54:53.016Z,20.77
2023-04-09T00:55:53.080Z,20.78
2023-04-09T00:56:53.147Z,20.80
2023-04-09T00:57:53.189Z,20.76
2023-04-09T00:58:53.443Z,20.70
2023-04-09T00:59:53.350Z,20.74
2023-04-09T01:00:53.425Z,20.73
2023-04-09T01:01:53.516Z,20.69
2023-04-09T01:02:53.685Z,20.70
2023-04-09T01:03:53.589Z,20.69
2023-04-09T01:04:53.621Z,20.70
2023-04-09T01:05:53.702Z,20.70
2023-04-09T01:06:53.751Z,20.69
2023-04-09T01:07:53.820Z,20.71
2023-04-09T01:08:54.124Z,20.71
2023-04-09T01:09:53.926Z,20.70
2023-04-09T01:10:53.983Z,20.71
2023-04-09T01:11:54.072Z,20.69
2023-04-09T01:12:54.123Z,20.72
2023-04-09T01:13:54.183Z,20.71
2023-04-09T01:14:54.244Z,20.66
2023-04-09T01:15:54.297Z,20.67
2023-04-09T01:16:54.419Z,20.69
2023-04-09T01:17:54.419Z,20.69
2023-04-09T01:18:54.451Z,20.64
2023-04-09T01:19:54.521Z,20.63
2023-04-09T01:20:54.543Z,20.64
2023-04-09T01:21:54.610Z,20.60
2023-04-09T01:22:54.667Z,20.64
2023-04-09T01:23:54.735Z,20.64
2023-04-09T01:24:54.916Z,20.67
2023-04-09T01:25:54.847Z,20.61
2023-04-09T01:26:54.905Z,20.60
2023-04-09T01:27:54.969Z,20.64
2023-04-09T01:28:55.049Z,20.64
2023-04-09T01:29:55.100Z,20.63
2023-04-09T01:30:55.261Z,20.59
2023-04-09T01:31:55.228Z,20.60
2023-04-09T01:32:55.300Z,20.63
2023-04-09T01:33:55.355Z,20.61
2023-04-09T01:34:55.411Z,20.60
2023-04-09T01:35:55.551Z,20.59
2023-04-09T01:36:55.554Z,20.64
2023-04-09T01:37:55.609Z,20.61
2023-04-09T01:38:55.671Z,20.56
2023-04-09T01:39:55.755Z,20.57
2023-04-09T01:40:55.816Z,20.59
2023-04-09T01:41:55.881Z,20.63
2023-04-09T01:42:55.937Z,20.56
2023-04-09T01:43:55.983Z,20.59
2023-04-09T01:44:56.059Z,20.60
2023-04-09T01:45:56.135Z,20.53
2023-04-09T01:46:56.162Z,20.59
2023-04-09T01:47:56.378Z,20.55
2023-04-09T01:48:56.291Z,20.59
2023-04-09T01:49:56.368Z,20.56
2023-04-09T01:50:56.394Z,20.51
2023-04-09T01:51:56.438Z,20.60
2023-04-09T01:52:56.513Z,20.56
2023-04-09T01:53:56.551Z,20.55
2023-04-09T01:54:56.639Z,20.56
2023-04-09T01:55:56.723Z,20.55
2023-04-09T01:56:56.766Z,20.53
2023-04-09T01:57:56.810Z,20.56
2023-04-09T01:58:56.897Z,20.56
2023-04-09T01:59:56.929Z,20.57
2023-04-09T02:00:57.032Z,20.60
2023-04-09T02:01:57.224Z,20.53
2023-04-09T02:02:57.172Z,20.53
2023-04-09T02:03:57.309Z,20.56
2023-04-09T02:04:57.236Z,20.60
2023-04-09T02:05:57.263Z,20.53
2023-04-09T02:06:57.321Z,20.53
2023-04-09T02:07:57.382Z,20.57
2023-04-09T02:08:57.465Z,20.50
2023-04-09T02:09:57.615Z,20.50
2023-04-09T02:10:57.576Z,20.54
2023-04-09T02:11:57.629Z,20.56
2023-04-09T02:12:57.677Z,20.49
2023-04-09T02:13:57.768Z,20.53
2023-04-09T02:14:57.802Z,20.50
2023-04-09T02:15:57.937Z,20.51
2023-04-09T02:16:57.944Z,20.50
2023-04-09T02:17:58.042Z,20.49
2023-04-09T02:18:58.059Z,20.49
2023-04-09T02:19:58.125Z,20.49
2023-04-09T02:20:58.177Z,20.53
2023-04-09T02:21:58.215Z,20.47
2023-04-09T02:22:58.263Z,20.47
2023-04-09T02:23:58.345Z,20.43
2023-04-09T02:24:58.377Z,20.43
2023-04-09T02:25:58.446Z,20.44
2023-04-09T02:26:58.511Z,20.42
2023-04-09T02:27:58.571Z,20.42
2023-04-09T02:28:58.649Z,20.46
2023-04-09T02:29:58.696Z,20.42
2023-04-09T02:30:58.792Z,20.40
2023-04-09T02:31:58.796Z,20.44
2023-04-09T02:32:58.986Z,20.43
2023-04-09T02:33:58.909Z,20.40
2023-04-09T02:34:58.990Z,20.42
2023-04-09T02:35:59.114Z,20.40
2023-04-09T02:36:59.113Z,20.42
2023-04-09T02:37:59.165Z,20.36
2023-04-09T02:38:59.232Z,20.36
2023-04-09T02:39:59.280Z,20.37
2023-04-09T02:40:59.330Z,20.36
2023-04-09T02:41:59.417Z,20.38
2023-04-09T02:42:59.467Z,20.37
2023-04-09T02:43:59.525Z,20.31
2023-04-09T02:44:59.587Z,20.36
2023-04-09T02:45:59.666Z,20.37
2023-04-09T02:46:59.722Z,20.34
2023-04-09T02:47:59.768Z,20.36
2023-04-09T02:48:59.830Z,20.34
2023-04-09T02:49:59.898Z,20.34
2023-04-09T02:50:59.953Z,20.32
2023-04-09T02:52:00.001Z,20.30
2023-04-09T02:53:00.069Z,20.34
2023-04-09T02:54:00.149Z,20.30
2023-04-09T02:55:00.299Z,20.37
2023-04-09T02:56:00.264Z,20.31
2023-04-09T02:57:00.309Z,20.33
2023-04-09T02:58:00.346Z,20.31
2023-04-09T02:59:00.407Z,20.36
2023-04-09T03:00:00.487Z,20.33
2023-04-09T03:01:00.510Z,20.27
2023-04-09T03:02:00.613Z,20.30
2023-04-09T03:03:00.771Z,20.33
2023-04-09T03:04:00.760Z,20.36
2023-04-09T03:05:00.726Z,20.27
2023-04-09T03:06:00.796Z,20.30
2023-04-09T03:07:00.836Z,20.27
2023-04-09T03:08:00.888Z,20.30
2023-04-09T03:09:00.934Z,20.23
2023-04-09T03:10:00.961Z,20.27
2023-04-09T03:11:00.997Z,20.26
2023-04-09T03:12:01.041Z,20.23
2023-04-09T03:13:01.077Z,20.27
2023-04-09T03:14:01.144Z,20.26
2023-04-09T03:15:01.216Z,20.19
2023-04-09T03:16:01.307Z,20.23
2023-04-09T03:17:01.447Z,20.24
2023-04-09T03:18:01.474Z,20.20
2023-04-09T03:19:01.441Z,20.18
2023-04-09T03:20:01.489Z,20.20
2023-04-09T03:21:01.569Z,20.17
2023-04-09T03:22:01.598Z,20.20
2023-04-09T03:23:01.669Z,20.19
2023-04-09T03:24:01.744Z,20.17
2023-04-09T03:25:01.757Z,20.17
2023-04-09T03:26:01.838Z,20.18
2023-04-09T03:27:01.927Z,20.17
2023-04-09T03:28:01.950Z,20.23
2023-04-09T03:29:01.988Z,20.21
2023-04-09T03:30:01.996Z,20.16
2023-04-09T03:31:02.097Z,20.21
2023-04-09T03:32:02.086Z,20.16
2023-04-09T03:33:02.167Z,20.20
2023-04-09T03:34:02.220Z,20.17
2023-04-09T03:35:02.252Z,20.16
2023-04-09T03:36:02.340Z,20.18
2023-04-09T03:37:02.497Z,20.17
2023-04-09T03:38:02.427Z,20.16
2023-04-09T03:39:02.567Z,20.17
2023-04-09T03:40:02.539Z,20.16
2023-04-09T03:41:02.578Z,20.13
2023-04-09T03:42:02.649Z,20.12
2023-04-09T03:43:02.691Z,20.13
2023-04-09T03:44:02.740Z,20.13
2023-04-09T03:45:02.793Z,20.15
2023-04-09T03:46:02.799Z,20.14
2023-04-09T03:47:02.863Z,20.15
2023-04-09T03:48:02.929Z,20.10
2023-04-09T03:49:02.937Z,20.11
2023-04-09T03:50:02.994Z,20.17
2023-04-09T03:51:03.070Z,20.15
2023-04-09T03:52:03.064Z,20.13
2023-04-09T03:53:03.118Z,20.14
2023-04-09T03:54:03.124Z,20.15
2023-04-09T03:55:03.142Z,20.13
2023-04-09T03:56:03.205Z,20.14
2023-04-09T03:57:03.227Z,20.15
2023-04-09T03:58:03.235Z,20.16
2023-04-09T03:59:03.288Z,20.14
2023-04-09T04:00:03.330Z,20.13
2023-04-09T04:01:03.420Z,20.13
2023-04-09T04:02:03.411Z,20.15
2023-04-09T04:03:03.565Z,20.11
2023-04-09T04:04:03.445Z,20.13
2023-04-09T04:05:03.460Z,20.20
2023-04-09T04:06:03.466Z,20.16
2023-04-09T04:07:03.500Z,20.11
2023-04-09T04:08:03.557Z,20.13
2023-04-09T04:09:03.590Z,20.11
2023-04-09T04:10:03.623Z,20.13
2023-04-09T04:11:03.718Z,20.11
2023-04-09T04:12:03.693Z,20.13
2023-04-09T04:13:03.784Z,20.18
2023-04-09T04:14:03.756Z,20.13
2023-04-09T04:15:03.789Z,20.09
2023-04-09T04:16:03.838Z,20.10
2023-04-09T04:17:03.879Z,20.09
2023-04-09T04:18:03.894Z,20.13
2023-04-09T04:19:03.919Z,20.13
2023-04-09T04:20:03.974Z,20.13
2023-04-09T04:21:04.002Z,20.13
2023-04-09T04:22:04.025Z,20.14
2023-04-09T04:23:04.135Z,20.11
2023-04-09T04:24:04.103Z,20.17
2023-04-09T04:25:04.153Z,20.18
2023-04-09T04:26:04.173Z,20.11
2023-04-09T04:27:04.194Z,20.13
2023-04-09T04:28:04.234Z,20.18
2023-04-09T04:29:04.236Z,20.18
2023-04-09T04:30:04.263Z,20.13
2023-04-09T04:31:04.281Z,20.18
2023-04-09T04:32:04.382Z,20.18
2023-04-09T04:33:04.386Z,20.18
2023-04-09T04:34:04.390Z,20.09
2023-04-09T04:35:04.447Z,20.16
2023-04-09T04:36:04.476Z,20.16
2023-04-09T04:37:04.509Z,20.16
2023-04-09T04:38:04.540Z,20.13
2023-04-09T04:39:04.555Z,20.09
2023-04-09T04:40:04.604Z,20.15
2023-04-09T04:41:04.646Z,20.18
2023-04-09T04:42:04.666Z,20.14
2023-04-09T04:43:04.723Z,20.18
2023-04-09T04:44:04.772Z,20.20
2023-04-09T04:45:04.876Z,20.18
2023-04-09T04:46:04.804Z,20.14
2023-04-09T04:47:04.848Z,20.16
2023-04-09T04:48:04.928Z,20.11
2023-04-09T04:49:04.958Z,20.13
2023-04-09T04:50:04.982Z,20.09
2023-04-09T04:51:05.035Z,20.14
2023-04-09T04:52:05.104Z,20.17
2023-04-09T04:53:05.126Z,20.16
2023-04-09T04:54:05.166Z,20.14
2023-04-09T04:55:05.171Z,20.17
2023-04-09T04:56:05.206Z,20.20
2023-04-09T04:57:05.262Z,20.17
2023-04-09T04:58:05.257Z,20.14
2023-04-09T04:59:05.307Z,20.18
2023-04-09T05:00:05.308Z,20.18
2023-04-09T05:01:05.364Z,20.14
2023-04-09T05:02:05.447Z,20.17
2023-04-09T05:03:05.440Z,20.18
2023-04-09T05:04:05.496Z,20.18
2023-04-09T05:05:05.427Z,20.18
2023-04-09T05:06:05.430Z,20.18
2023-04-09T05:07:05.564Z,20.21
2023-04-09T05:08:05.477Z,20.18
2023-04-09T05:09:05.502Z,20.16
2023-04-09T05:10:05.518Z,20.20
2023-04-09T05:11:05.556Z,20.18
2023-04-09T05:12:05.555Z,20.16
2023-04-09T05:13:05.584Z,20.17
2023-04-09T05:14:05.581Z,20.20
2023-04-09T05:15:05.585Z,20.17
2023-04-09T05:16:05.603Z,20.20
2023-04-09T05:17:05.650Z,20.14
2023-04-09T05:18:05.674Z,20.20
2023-04-09T05:19:05.702Z,20.18
2023-04-09T05:20:05.707Z,20.17
2023-04-09T05:21:05.709Z,20.23
2023-04-09T05:22:05.746Z,20.13
2023-04-09T05:23:05.758Z,20.18
2023-04-09T05:24:05.813Z,20.20
2023-04-09T05:25:05.815Z,20.18
2023-04-09T05:26:05.840Z,20.17
2023-04-09T05:27:05.916Z,20.24
2023-04-09T05:28:05.908Z,20.20
2023-04-09T05:29:06.040Z,20.20
2023-04-09T05:30:05.966Z,20.21
2023-04-09T05:31:06.072Z,20.17
2023-04-09T05:32:06.027Z,20.18
2023-04-09T05:33:06.063Z,20.14
2023-04-09T05:34:06.094Z,20.17
2023-04-09T05:35:06.151Z,20.16
2023-04-09T05:36:06.165Z,20.14
2023-04-09T05:37:06.204Z,20.13
2023-04-09T05:38:06.251Z,20.23
2023-04-09T05:39:06.273Z,20.14
2023-04-09T05:40:06.291Z,20.21
2023-04-09T05:41:06.305Z,20.23
2023-04-09T05:42:06.333Z,20.23
2023-04-09T05:43:06.366Z,20.23
2023-04-09T05:44:06.381Z,20.27
2023-04-09T05:45:06.393Z,20.20
2023-04-09T05:46:06.418Z,20.27
2023-04-09T05:47:06.404Z,20.18
2023-04-09T05:48:06.411Z,20.21
2023-04-09T05:49:06.444Z,20.16
2023-04-09T05:50:06.462Z,20.24
2023-04-09T05:51:06.436Z,20.18
2023-04-09T05:52:06.460Z,20.26
2023-04-09T05:53:06.504Z,20.17
2023-04-09T05:54:06.521Z,20.23
2023-04-09T05:55:06.577Z,20.17
2023-04-09T05:56:06.553Z,20.23
2023-04-09T05:57:06.567Z,20.24
2023-04-09T05:58:06.574Z,20.23
2023-04-09T05:59:06.583Z,20.23
2023-04-09T06:00:06.590Z,20.18
2023-04-09T06:01:06.616Z,20.18
2023-04-09T06:02:06.762Z,20.23
2023-04-09T06:03:06.782Z,20.21
2023-04-09T06:04:06.851Z,20.17
2023-04-09T06:05:06.750Z,20.23
2023-04-09T06:06:06.766Z,20.19
2023-04-09T06:07:06.812Z,20.20
2023-04-09T06:08:06.816Z,20.30
2023-04-09T06:09:06.850Z,20.26
2023-04-09T06:10:06.921Z,20.23
2023-04-09T06:11:06.953Z,20.31
2023-04-09T06:12:06.998Z,20.30
2023-04-09T06:13:07.001Z,20.33
2023-04-09T06:14:07.038Z,20.27
2023-04-09T06:15:07.074Z,20.29
2023-04-09T06:16:07.117Z,20.29
2023-04-09T06:17:07.146Z,20.30
2023-04-09T06:18:07.261Z,20.27
2023-04-09T06:19:07.210Z,20.31
2023-04-09T06:20:07.237Z,20.33
2023-04-09T06:21:07.300Z,20.31
2023-04-09T06:22:07.300Z,20.36
2023-04-09T06:23:07.308Z,20.31
2023-04-09T06:24:07.330Z,20.34
2023-04-09T06:25:07.358Z,20.36
2023-04-09T06:26:07.384Z,20.34
2023-04-09T06:27:07.423Z,20.29
2023-04-09T06:28:07.453Z,20.34
2023-04-09T06:29:07.477Z,20.29
2023-04-09T06:30:07.514Z,20.33
2023-04-09T06:31:07.579Z,20.38
2023-04-09T06:32:07.581Z,20.34
2023-04-09T06:33:07.660Z,20.34
2023-04-09T06:34:07.721Z,20.36
2023-04-09T06:35:09.740Z,20.40
2023-04-09T06:36:07.786Z,20.36
2023-04-09T06:37:07.745Z,20.37
2023-04-09T06:38:07.750Z,20.38
2023-04-09T06:39:07.737Z,20.38
2023-04-09T06:40:07.740Z,20.37
2023-04-09T06:41:07.723Z,20.41
2023-04-09T06:42:07.725Z,20.43
2023-04-09T06:43:07.713Z,20.43
2023-04-09T06:44:07.723Z,20.42
2023-04-09T06:45:07.947Z,20.41
2023-04-09T06:46:07.701Z,20.37
2023-04-09T06:47:07.691Z,20.39
2023-04-09T06:48:07.702Z,20.40
2023-04-09T06:49:07.665Z,20.40
2023-04-09T06:50:07.672Z,20.38
2023-04-09T06:51:07.644Z,20.37
2023-04-09T06:52:07.648Z,20.38
2023-04-09T06:53:07.618Z,20.37
2023-04-09T06:54:07.630Z,20.39
2023-04-09T06:55:07.626Z,20.33
2023-04-09T06:56:07.633Z,20.37
2023-04-09T06:57:07.595Z,20.36
2023-04-09T06:58:07.925Z,20.33
2023-04-09T06:59:07.588Z,20.39
2023-04-09T07:00:07.576Z,20.33
2023-04-09T07:01:07.593Z,20.34
2023-04-09T07:02:07.695Z,20.34
2023-04-09T07:03:07.643Z,20.37
2023-04-09T07:04:07.686Z,20.37
2023-04-09T07:05:07.551Z,20.40
2023-04-09T07:06:07.523Z,20.42
2023-04-09T07:07:07.528Z,20.37
2023-04-09T07:08:07.508Z,20.39
2023-04-09T07:09:07.508Z,20.40
2023-04-09T07:10:07.521Z,20.40
2023-04-09T07:11:07.485Z,20.43
2023-04-09T07:12:07.499Z,20.42
2023-04-09T07:13:07.488Z,20.40
2023-04-09T07:14:07.472Z,20.36
2023-04-09T07:15:07.466Z,20.44
2023-04-09T07:16:07.504Z,20.42
2023-04-09T07:17:07.469Z,20.40
2023-04-09T07:18:07.501Z,20.39
2023-04-09T07:19:07.471Z,20.39
2023-04-09T07:20:07.443Z,20.45
2023-04-09T07:21:07.505Z,20.42
2023-04-09T07:22:07.531Z,20.43
2023-04-09T07:23:07.578Z,20.45
2023-04-09T07:24:07.621Z,20.39
2023-04-09T07:25:07.659Z,20.40
2023-04-09T07:26:07.702Z,20.43
2023-04-09T07:27:07.749Z,20.40
2023-04-09T07:28:07.816Z,20.40
2023-04-09T07:29:07.897Z,20.39
2023-04-09T07:30:07.976Z,20.39
2023-04-09T07:31:08.007Z,20.39
2023-04-09T07:32:08.041Z,20.35
2023-04-09T07:33:08.137Z,20.38
2023-04-09T07:34:08.166Z,20.36
2023-04-09T07:35:08.216Z,20.32
2023-04-09T07:36:08.307Z,20.33
2023-04-09T07:37:08.354Z,20.36
2023-04-09T07:38:08.399Z,20.33
2023-04-09T07:39:08.453Z,20.27
2023-04-09T07:40:08.525Z,20.28
2023-04-09T07:41:08.609Z,20.28
2023-04-09T07:42:08.671Z,20.29
2023-04-09T07:43:08.723Z,20.33
2023-04-09T07:44:08.791Z,20.31
2023-04-09T07:45:08.961Z,20.29
2023-04-09T07:46:08.934Z,20.31
2023-04-09T07:47:09.152Z,20.31
2023-04-09T07:48:09.028Z,20.28
2023-04-09T07:49:09.114Z,20.32
2023-04-09T07:50:09.166Z,20.32
2023-04-09T07:51:09.207Z,20.32
2023-04-09T07:52:09.293Z,20.31
2023-04-09T07:53:09.332Z,20.30
2023-04-09T07:54:09.398Z,20.25
2023-04-09T07:55:09.461Z,20.20
2023-04-09T07:56:09.519Z,20.20
2023-04-09T07:57:09.563Z,20.24
2023-04-09T07:58:09.634Z,20.28
2023-04-09T07:59:09.683Z,20.23
2023-04-09T08:00:09.749Z,20.16
2023-04-09T08:01:09.808Z,20.14
2023-04-09T08:02:10.584Z,20.17
2023-04-09T08:03:10.088Z,20.18
2023-04-09T08:04:10.227Z,20.22
2023-04-09T08:05:10.050Z,20.19
2023-04-09T08:06:10.070Z,20.16
2023-04-09T08:07:10.109Z,20.18
2023-04-09T08:08:10.166Z,20.12
2023-04-09T08:09:10.221Z,20.11
2023-04-09T08:10:10.264Z,20.10
2023-04-09T08:11:10.295Z,20.11
2023-04-09T08:12:10.365Z,20.05
2023-04-09T08:13:12.002Z,20.04
2023-04-09T08:14:10.676Z,20.02
2023-04-09T08:15:10.473Z,20.04
2023-04-09T08:16:10.532Z,20.06
2023-04-09T08:17:10.564Z,20.01
2023-04-09T08:18:10.681Z,20.04
2023-04-09T08:19:10.629Z,20.07
2023-04-09T08:20:10.692Z,20.07
2023-04-09T08:21:10.702Z,20.01
2023-04-09T08:22:10.719Z,20.01
2023-04-09T08:23:10.752Z,19.96
2023-04-09T08:24:10.796Z,19.90
2023-04-09T08:25:10.865Z,19.93
2023-04-09T08:26:10.861Z,19.95
2023-04-09T08:27:10.895Z,19.87
2023-04-09T08:28:10.947Z,19.83
2023-04-09T08:29:10.960Z,19.86
2023-04-09T08:30:10.998Z,19.91
2023-04-09T08:31:11.039Z,19.88
2023-04-09T08:32:11.163Z,19.95
2023-04-09T08:33:11.083Z,19.91
2023-04-09T08:34:11.122Z,19.85
2023-04-09T08:35:11.165Z,19.85
2023-04-09T08:36:11.195Z,19.85
2023-04-09T08:37:11.212Z,19.82
2023-04-09T08:38:11.249Z,19.81
2023-04-09T08:39:11.265Z,19.78
2023-04-09T08:40:11.326Z,19.76
2023-04-09T08:41:11.841Z,19.75
2023-04-09T08:42:11.370Z,19.74
2023-04-09T08:43:11.399Z,19.74
2023-04-09T08:44:11.476Z,19.67
2023-04-09T08:45:11.472Z,19.66
2023-04-09T08:46:11.548Z,19.67
2023-04-09T08:47:11.603Z,19.67
2023-04-09T08:48:11.653Z,19.69
2023-04-09T08:49:11.612Z,19.73
2023-04-09T08:50:11.660Z,19.70
2023-04-09T08:51:11.681Z,19.75
2023-04-09T08:52:11.700Z,19.70
2023-04-09T08:53:11.755Z,19.68
2023-04-09T08:54:11.772Z,19.66
2023-04-09T08:55:11.836Z,19.70
2023-04-09T08:56:11.852Z,19.74
2023-04-09T08:57:11.874Z,19.70
2023-04-09T08:58:11.907Z,19.78
2023-04-09T08:59:11.949Z,19.85
2023-04-09T09:00:11.983Z,19.75
2023-04-09T09:01:13.566Z,19.73
2023-04-09T09:02:12.565Z,19.73
2023-04-09T09:03:12.159Z,19.71
2023-04-09T09:04:12.160Z,19.68
2023-04-09T09:05:12.173Z,19.67
2023-04-09T09:06:12.186Z,19.63
2023-04-09T09:07:12.226Z,19.64
2023-04-09T09:08:12.272Z,19.63
2023-04-09T09:09:12.312Z,19.66
2023-04-09T09:10:12.329Z,19.63
2023-04-09T09:11:12.376Z,19.59
2023-04-09T09:12:12.393Z,19.53
2023-04-09T09:13:12.455Z,19.47
2023-04-09T09:14:12.469Z,19.54
2023-04-09T09:15:12.496Z,19.49
2023-04-09T09:16:12.547Z,19.46
2023-04-09T09:17:12.598Z,19.43
2023-04-09T09:18:12.595Z,19.46
2023-04-09T09:19:12.625Z,19.40
2023-04-09T09:20:12.662Z,19.36
2023-04-09T09:21:12.713Z,19.35
2023-04-09T09:22:12.760Z,19.39
2023-04-09T09:23:12.784Z,19.39
2023-04-09T09:24:12.821Z,19.39
2023-04-09T09:25:12.887Z,19.41
2023-04-09T09:26:12.894Z,19.35
2023-04-09T09:27:12.934Z,19.39
2023-04-09T09:28:12.968Z,19.40
2023-04-09T09:29:12.972Z,19.42
2023-04-09T09:30:13.022Z,19.36
2023-04-09T09:31:13.061Z,19.41
2023-04-09T09:32:13.080Z,19.43
2023-04-09T09:33:13.123Z,19.42
2023-04-09T09:34:13.147Z,19.46
2023-04-09T09:35:13.175Z,19.47
2023-04-09T09:36:13.270Z,19.46
2023-04-09T09:37:13.241Z,19.52
2023-04-09T09:38:13.279Z,19.49
2023-04-09T09:39:13.311Z,19.43
2023-04-09T09:40:13.350Z,19.38
2023-04-09T09:41:13.354Z,19.35
2023-04-09T09:42:13.402Z,19.29
2023-04-09T09:43:14.518Z,19.25
2023-04-09T09:44:13.463Z,19.26
2023-04-09T09:45:13.506Z,19.24
2023-04-09T09:46:13.605Z,19.28
2023-04-09T09:47:13.565Z,19.28
2023-04-09T09:48:13.615Z,19.22
2023-04-09T09:49:13.624Z,19.21
2023-04-09T09:50:13.656Z,19.19
2023-04-09T09:51:13.672Z,19.12
2023-04-09T09:52:13.716Z,19.16
2023-04-09T09:53:13.730Z,19.11
2023-04-09T09:54:13.771Z,19.11
2023-04-09T09:55:13.796Z,19.08
2023-04-09T09:56:13.803Z,19.07
2023-04-09T09:57:13.832Z,19.12
2023-04-09T09:58:13.860Z,19.04
2023-04-09T09:59:13.892Z,19.08
2023-04-09T10:00:13.913Z,19.14
2023-04-09T10:01:13.980Z,19.09
2023-04-09T10:02:14.053Z,19.02
2023-04-09T10:03:14.062Z,19.04
2023-04-09T10:04:14.055Z,19.12
2023-04-09T10:05:14.071Z,19.05
2023-04-09T10:06:14.084Z,19.02
2023-04-09T10:07:14.158Z,19.07
2023-04-09T10:08:14.154Z,19.07
2023-04-09T10:09:14.182Z,19.07
2023-04-09T10:10:14.217Z,18.98
2023-04-09T10:11:14.231Z,18.98
2023-04-09T10:12:14.253Z,19.04
2023-04-09T10:13:14.281Z,19.02
2023-04-09T10:14:14.297Z,19.07
2023-04-09T10:15:14.341Z,19.05
2023-04-09T10:16:14.446Z,18.95
2023-04-09T10:17:14.398Z,19.01
2023-04-09T10:18:14.419Z,18.97
2023-04-09T10:19:14.431Z,18.86
2023-04-09T10:20:14.440Z,18.82
2023-04-09T10:21:14.475Z,18.84
2023-04-09T10:22:14.481Z,18.81
2023-04-09T10:23:14.504Z,18.77
2023-04-09T10:24:14.534Z,18.86
2023-04-09T10:25:14.554Z,18.82
2023-04-09T10:26:14.595Z,18.82
2023-04-09T10:27:16.528Z,18.81
2023-04-09T10:28:14.713Z,18.80
2023-04-09T10:29:14.787Z,18.77
2023-04-09T10:30:14.794Z,18.74
2023-04-09T10:31:14.813Z,18.67
2023-04-09T10:32:14.784Z,18.60
2023-04-09T10:33:14.831Z,18.57
2023-04-09T10:34:14.818Z,18.60
2023-04-09T10:35:14.856Z,18.53
2023-04-09T10:36:14.900Z,18.53
2023-04-09T10:37:14.918Z,18.50
2023-04-09T10:38:14.881Z,18.43
2023-04-09T10:39:14.915Z,18.45
2023-04-09T10:40:14.972Z,18.47
2023-04-09T10:41:14.961Z,18.53
2023-04-09T10:42:14.967Z,18.53
2023-04-09T10:43:14.986Z,18.57
2023-04-09T10:44:15.025Z,18.34
2023-04-09T10:45:15.176Z,18.21
2023-04-09T10:46:15.057Z,18.26
2023-04-09T10:47:15.086Z,18.42
2023-04-09T10:48:15.092Z,18.27
2023-04-09T10:49:15.131Z,18.13
2023-04-09T10:50:15.179Z,18.06
2023-04-09T10:51:15.167Z,18.33
2023-04-09T10:52:15.210Z,18.23
2023-04-09T10:53:15.243Z,18.20
2023-04-09T10:54:15.260Z,18.19
2023-04-09T10:55:15.287Z,18.26
2023-04-09T10:56:15.320Z,18.07
2023-04-09T10:57:15.317Z,18.13
2023-04-09T10:58:15.352Z,18.06
2023-04-09T10:59:15.395Z,18.12
2023-04-09T11:00:15.374Z,18.03
2023-04-09T11:01:15.401Z,18.06
2023-04-09T11:02:15.561Z,18.26
2023-04-09T11:03:15.526Z,17.95
2023-04-09T11:04:15.473Z,18.00
2023-04-09T11:05:15.487Z,18.09
2023-04-09T11:06:15.539Z,18.06
2023-04-09T11:07:15.531Z,18.00
2023-04-09T11:08:15.546Z,18.03
2023-04-09T11:09:15.566Z,17.96
2023-04-09T11:10:15.597Z,17.90
2023-04-09T11:11:15.596Z,17.92
2023-04-09T11:12:15.612Z,18.00
2023-04-09T11:13:15.634Z,17.83
2023-04-09T11:14:15.664Z,17.83
2023-04-09T11:15:15.663Z,17.88
2023-04-09T11:16:24.086Z,17.85
2023-04-09T11:17:16.686Z,17.89
2023-04-09T11:18:15.687Z,17.89
2023-04-09T11:19:15.682Z,17.77
2023-04-09T11:20:15.655Z,17.93
2023-04-09T11:21:15.653Z,17.79
2023-04-09T11:22:15.652Z,17.70
2023-04-09T11:23:15.665Z,17.69
2023-04-09T11:24:15.617Z,17.70
2023-04-09T11:25:15.625Z,17.70
2023-04-09T11:26:15.623Z,17.80
2023-04-09T11:27:15.620Z,17.79
2023-04-09T11:28:15.612Z,17.73
2023-04-09T11:29:15.596Z,17.72
2023-04-09T11:30:15.600Z,17.73
2023-04-09T11:31:15.574Z,17.73
2023-04-09T11:32:15.588Z,17.66
2023-04-09T11:33:18.286Z,17.56
2023-04-09T11:34:15.565Z,17.70
2023-04-09T11:35:15.546Z,17.68
2023-04-09T11:36:15.572Z,17.70
2023-04-09T11:37:15.545Z,17.66
2023-04-09T11:38:15.550Z,17.70
2023-04-09T11:39:15.518Z,17.68
2023-04-09T11:40:15.528Z,17.61
2023-04-09T11:41:15.521Z,17.62
2023-04-09T11:42:15.511Z,17.49
2023-04-09T11:43:15.492Z,17.56
2023-04-09T11:44:15.496Z,17.53
2023-04-09T11:45:15.491Z,17.58
2023-04-09T11:46:15.485Z,17.58
2023-04-09T11:47:15.456Z,17.52
2023-04-09T11:48:15.462Z,17.56
2023-04-09T11:49:15.540Z,17.50
2023-04-09T11:50:15.442Z,17.50
2023-04-09T11:51:15.444Z,17.43
2023-04-09T11:52:15.426Z,17.41
2023-04-09T11:53:15.460Z,17.35
2023-04-09T11:54:15.423Z,17.39
2023-04-09T11:55:15.415Z,17.41
2023-04-09T11:56:15.410Z,17.46
2023-04-09T11:57:15.409Z,17.46
2023-04-09T11:58:15.393Z,17.43
2023-04-09T11:59:15.408Z,17.36
2023-04-09T12:00:15.412Z,17.42
2023-04-09T12:01:15.391Z,17.38
2023-04-09T12:02:15.449Z,17.41
2023-04-09T12:03:15.646Z,17.32
2023-04-09T12:04:15.502Z,17.32
2023-04-09T12:05:15.400Z,17.25
2023-04-09T12:06:15.327Z,17.21
2023-04-09T12:07:15.320Z,17.07
2023-04-09T12:08:15.314Z,17.34
2023-04-09T12:09:15.328Z,17.02
2023-04-09T12:10:15.300Z,16.98
2023-04-09T12:11:15.298Z,17.02
2023-04-09T12:12:15.296Z,17.05
2023-04-09T12:13:15.287Z,17.09
2023-04-09T12:14:15.288Z,16.94
2023-04-09T12:15:15.284Z,16.82
2023-04-09T12:16:15.296Z,16.82
2023-04-09T12:17:15.259Z,16.92
2023-04-09T12:18:15.287Z,16.53
2023-04-09T12:19:15.246Z,16.67
2023-04-09T12:20:15.262Z,16.64
2023-04-09T12:21:15.850Z,16.74
2023-04-09T12:22:15.241Z,16.65
2023-04-09T12:23:15.229Z,16.57
2023-04-09T12:24:15.259Z,16.65
2023-04-09T12:25:15.286Z,16.77
2023-04-09T12:26:15.309Z,16.61
2023-04-09T12:27:15.326Z,16.63
2023-04-09T12:28:15.366Z,16.55
2023-04-09T12:29:15.365Z,16.50
2023-04-09T12:30:15.398Z,16.37
2023-04-09T12:31:15.421Z,16.43
2023-04-09T12:32:15.459Z,16.44
2023-04-09T12:33:15.471Z,16.50
2023-04-09T12:34:15.486Z,16.45
2023-04-09T12:35:15.507Z,16.44
2023-04-09T12:36:15.549Z,16.32
2023-04-09T12:37:15.592Z,16.44
2023-04-09T12:38:15.599Z,16.36
2023-04-09T12:39:15.618Z,16.34
2023-04-09T12:40:15.651Z,16.38
2023-04-09T12:41:15.665Z,16.35
2023-04-09T12:42:15.703Z,16.31
2023-04-09T12:43:15.758Z,16.34
2023-04-09T12:44:15.725Z,16.31
2023-04-09T12:45:15.764Z,16.24
2023-04-09T12:46:15.853Z,16.22
2023-04-09T12:47:15.804Z,16.20
2023-04-09T12:48:15.838Z,16.14
2023-04-09T12:49:15.865Z,16.12
2023-04-09T12:50:15.894Z,16.15
2023-04-09T12:51:15.909Z,16.17
2023-04-09T12:52:15.929Z,16.14
2023-04-09T12:53:15.963Z,16.07